createdAt,value
2023-03-15T00:00:39.592Z,2.64
2023-03-15T00:01:39.763Z,2.64
2023-03-15T00:02:40.011Z,2.65
2023-03-15T00:03:40.147Z,2.65
2023-03-15T00:04:40.313Z,2.64
2023-03-15T00:05:40.520Z,2.65
2023-03-15T00:06:40.688Z,2.68
2023-03-15T00:07:40.868Z,2.68
2023-03-15T00:08:41.043Z,2.70
2023-03-15T00:09:41.224Z,2.68
2023-03-15T00:10:41.393Z,2.62
2023-03-15T00:11:41.594Z,2.64
2023-03-15T00:12:41.781Z,2.61
2023-03-15T00:13:41.948Z,2.61
2023-03-15T00:14:42.112Z,2.62
2023-03-15T00:15:42.303Z,2.61
2023-03-15T00:16:42.492Z,2.61
2023-03-15T00:17:42.675Z,2.62
2023-03-15T00:18:42.844Z,2.61
2023-03-15T00:19:43.030Z,2.59
2023-03-15T00:20:43.203Z,2.58
2023-03-15T00:21:43.399Z,2.61
2023-03-15T00:22:43.552Z,2.59
2023-03-15T00:23:43.727Z,2.59
2023-03-15T00:24:43.888Z,2.61
2023-03-15T00:25:44.081Z,2.62
2023-03-15T00:26:44.257Z,2.65
2023-03-15T00:27:44.462Z,2.65
2023-03-15T00:28:44.640Z,2.64
2023-03-15T00:29:44.829Z,2.65
2023-03-15T00:30:45.032Z,2.64
2023-03-15T00:31:45.203Z,2.65
2023-03-15T00:32:45.395Z,2.62
2023-03-15T00:33:45.553Z,2.62
2023-03-15T00:34:45.723Z,2.62
2023-03-15T00:35:45.930Z,2.62
2023-03-15T00:36:46.079Z,2.61
2023-03-15T00:37:46.251Z,2.61
2023-03-15T00:38:46.426Z,2.58
2023-03-15T00:39:46.600Z,2.59
2023-03-15T00:40:46.881Z,2.59
2023-03-15T00:41:46.927Z,2.58
2023-03-15T00:42:47.078Z,2.57
2023-03-15T00:43:47.252Z,2.54
2023-03-15T00:44:47.457Z,2.54
2023-03-15T00:45:47.610Z,2.52
2023-03-15T00:46:47.832Z,2.54
2023-03-15T00:47:47.977Z,2.55
2023-03-15T00:48:48.150Z,2.55
2023-03-15T00:49:48.325Z,2.54
2023-03-15T00:50:48.486Z,2.52
2023-03-15T00:51:48.659Z,2.52
2023-03-15T00:52:48.872Z,2.51
2023-03-15T00:53:49.029Z,2.51
2023-03-15T00:54:49.230Z,2.47
2023-03-15T00:55:49.340Z,2.47
2023-03-15T00:56:49.524Z,2.50
2023-03-15T00:57:49.713Z,2.50
2023-03-15T00:58:49.927Z,2.47
2023-03-15T00:59:50.103Z,2.47
2023-03-15T01:00:50.277Z,2.47
2023-03-15T01:01:50.505Z,2.47
2023-03-15T01:02:50.733Z,2.44
2023-03-15T01:03:50.870Z,2.46
2023-03-15T01:04:51.074Z,2.43
2023-03-15T01:05:51.238Z,2.43
2023-03-15T01:06:51.428Z,2.46
2023-03-15T01:07:51.621Z,2.46
2023-03-15T01:08:51.811Z,2.44
2023-03-15T01:09:51.978Z,2.43
2023-03-15T01:10:52.182Z,2.43
2023-03-15T01:11:52.367Z,2.41
2023-03-15T01:12:52.561Z,2.39
2023-03-15T01:13:52.734Z,2.40
2023-03-15T01:14:52.906Z,2.39
2023-03-15T01:15:53.090Z,2.39
2023-03-15T01:16:53.300Z,2.39
2023-03-15T01:17:53.477Z,2.39
2023-03-15T01:18:53.653Z,2.41
2023-03-15T01:19:53.825Z,2.43
2023-03-15T01:20:54.014Z,2.44
2023-03-15T01:21:54.199Z,2.44
2023-03-15T01:22:54.387Z,2.43
2023-03-15T01:23:54.571Z,2.39
2023-03-15T01:24:54.752Z,2.41
2023-03-15T01:25:54.944Z,2.39
2023-03-15T01:26:55.120Z,2.36
2023-03-15T01:27:55.301Z,2.36
2023-03-15T01:28:55.497Z,2.36
2023-03-15T01:29:55.692Z,2.34
2023-03-15T01:30:55.866Z,2.36
2023-03-15T01:31:56.100Z,2.37
2023-03-15T01:32:56.326Z,2.37
2023-03-15T01:33:56.472Z,2.34
2023-03-15T01:34:56.635Z,2.36
2023-03-15T01:35:56.842Z,2.33
2023-03-15T01:36:57.072Z,2.33
2023-03-15T01:37:57.252Z,2.33
2023-03-15T01:38:57.452Z,2.32
2023-03-15T01:39:57.630Z,2.28
2023-03-15T01:40:57.803Z,2.28
2023-03-15T01:41:57.978Z,2.28
2023-03-15T01:42:58.176Z,2.26
2023-03-15T01:43:58.347Z,2.26
2023-03-15T01:44:58.513Z,2.23
2023-03-15T01:45:58.674Z,2.23
2023-03-15T01:46:58.884Z,2.22
2023-03-15T01:47:59.129Z,2.23
2023-03-15T01:48:59.318Z,2.16
2023-03-15T01:49:59.481Z,2.18
2023-03-15T01:50:59.655Z,2.19
2023-03-15T01:51:59.824Z,2.22
2023-03-15T01:53:00.020Z,2.22
2023-03-15T01:54:00.196Z,2.19
2023-03-15T01:55:00.360Z,2.21
2023-03-15T01:56:00.549Z,2.19
2023-03-15T01:57:00.722Z,2.21
2023-03-15T01:58:00.928Z,2.21
2023-03-15T01:59:01.102Z,2.23
2023-03-15T02:00:01.302Z,2.23
2023-03-15T02:01:01.512Z,2.22
2023-03-15T02:02:01.749Z,2.22
2023-03-15T02:03:01.921Z,2.21
2023-03-15T02:04:02.102Z,2.18
2023-03-15T02:05:02.290Z,2.16
2023-03-15T02:06:02.465Z,2.16
2023-03-15T02:07:02.638Z,2.15
2023-03-15T02:08:02.819Z,2.15
2023-03-15T02:09:02.997Z,2.15
2023-03-15T02:10:03.169Z,2.14
2023-03-15T02:11:03.362Z,2.15
2023-03-15T02:12:03.610Z,2.15
2023-03-15T02:13:03.807Z,2.14
2023-03-15T02:14:03.966Z,2.10
2023-03-15T02:15:04.155Z,2.12
2023-03-15T02:16:04.344Z,2.07
2023-03-15T02:17:04.520Z,2.07
2023-03-15T02:18:04.711Z,2.07
2023-03-15T02:19:04.911Z,2.03
2023-03-15T02:20:05.066Z,2.03
2023-03-15T02:21:06.229Z,2.03
2023-03-15T02:22:05.490Z,2.03
2023-03-15T02:23:05.677Z,2.01
2023-03-15T02:24:05.871Z,2.03
2023-03-15T02:25:06.060Z,2.00
2023-03-15T02:26:06.251Z,1.98
2023-03-15T02:27:06.488Z,1.98
2023-03-15T02:28:06.680Z,1.97
2023-03-15T02:29:06.857Z,1.97
2023-03-15T02:30:07.042Z,1.95
2023-03-15T02:31:07.246Z,1.92
2023-03-15T02:32:07.409Z,1.93
2023-03-15T02:33:07.613Z,1.95
2023-03-15T02:34:07.806Z,1.93
2023-03-15T02:35:07.982Z,1.92
2023-03-15T02:36:08.253Z,1.89
2023-03-15T02:37:08.340Z,1.88
2023-03-15T02:38:08.548Z,1.88
2023-03-15T02:39:08.722Z,1.89
2023-03-15T02:40:08.924Z,1.92
2023-03-15T02:41:09.121Z,1.89
2023-03-15T02:42:09.326Z,1.88
2023-03-15T02:43:09.547Z,1.86
2023-03-15T02:44:09.770Z,1.86
2023-03-15T02:45:09.951Z,1.88
2023-03-15T02:46:10.215Z,1.85
2023-03-15T02:47:10.407Z,1.85
2023-03-15T02:48:10.597Z,1.85
2023-03-15T02:49:10.787Z,1.82
2023-03-15T02:50:10.966Z,1.85
2023-03-15T02:51:11.154Z,1.85
2023-03-15T02:52:11.349Z,1.85
2023-03-15T02:53:11.544Z,1.85
2023-03-15T02:54:11.736Z,1.85
2023-03-15T02:55:11.946Z,1.86
2023-03-15T02:56:12.107Z,1.84
2023-03-15T02:57:12.339Z,1.82
2023-03-15T02:58:12.511Z,1.79
2023-03-15T02:59:12.766Z,1.81
2023-03-15T03:00:12.876Z,1.79
2023-03-15T03:01:13.165Z,1.75
2023-03-15T03:02:13.303Z,1.76
2023-03-15T03:03:13.405Z,1.75
2023-03-15T03:04:13.629Z,1.71
2023-03-15T03:05:13.803Z,1.74
2023-03-15T03:06:14.013Z,1.75
2023-03-15T03:07:14.194Z,1.74
2023-03-15T03:08:14.374Z,1.75
2023-03-15T03:09:14.592Z,1.76
2023-03-15T03:10:14.765Z,1.74
2023-03-15T03:11:14.964Z,1.74
2023-03-15T03:12:15.155Z,1.74
2023-03-15T03:13:15.338Z,1.74
2023-03-15T03:14:15.540Z,1.71
2023-03-15T03:15:15.719Z,1.74
2023-03-15T03:16:15.934Z,1.70
2023-03-15T03:17:16.091Z,1.71
2023-03-15T03:18:16.297Z,1.70
2023-03-15T03:19:16.496Z,1.74
2023-03-15T03:20:16.693Z,1.76
2023-03-15T03:21:16.840Z,1.81
2023-03-15T03:22:17.029Z,1.81
2023-03-15T03:23:17.216Z,1.82
2023-03-15T03:24:17.402Z,1.84
2023-03-15T03:25:17.578Z,1.82
2023-03-15T03:26:17.761Z,1.85
2023-03-15T03:27:17.947Z,1.86
2023-03-15T03:28:18.117Z,1.89
2023-03-15T03:29:18.296Z,1.88
2023-03-15T03:30:18.465Z,1.85
2023-03-15T03:31:23.059Z,1.85
2023-03-15T03:32:18.859Z,1.79
2023-03-15T03:33:19.053Z,1.76
2023-03-15T03:34:19.227Z,1.74
2023-03-15T03:35:19.429Z,1.71
2023-03-15T03:36:19.583Z,1.74
2023-03-15T03:37:19.776Z,1.68
2023-03-15T03:38:19.938Z,1.68
2023-03-15T03:39:20.115Z,1.68
2023-03-15T03:40:20.291Z,1.66
2023-03-15T03:41:20.474Z,1.63
2023-03-15T03:42:20.630Z,1.63
2023-03-15T03:43:27.877Z,1.61
2023-03-15T03:44:21.002Z,1.60
2023-03-15T03:45:21.181Z,1.56
2023-03-15T03:46:21.373Z,1.53
2023-03-15T03:47:21.539Z,1.56
2023-03-15T03:48:21.720Z,1.50
2023-03-15T03:49:21.889Z,1.52
2023-03-15T03:50:22.074Z,1.52
2023-03-15T03:51:22.256Z,1.48
2023-03-15T03:52:22.434Z,1.46
2023-03-15T03:53:22.618Z,1.45
2023-03-15T03:54:22.802Z,1.45
2023-03-15T03:55:22.987Z,1.45
2023-03-15T03:56:23.171Z,1.43
2023-03-15T03:57:23.381Z,1.42
2023-03-15T03:58:23.601Z,1.40
2023-03-15T03:59:23.776Z,1.38
2023-03-15T04:00:23.951Z,1.36
2023-03-15T04:01:24.145Z,1.32
2023-03-15T04:02:24.367Z,1.32
2023-03-15T04:03:24.545Z,1.32
2023-03-15T04:04:24.738Z,1.36
2023-03-15T04:05:24.922Z,1.32
2023-03-15T04:06:25.114Z,1.32
2023-03-15T04:07:25.301Z,1.34
2023-03-15T04:08:25.489Z,1.32
2023-03-15T04:09:25.680Z,1.30
2023-03-15T04:10:25.860Z,1.30
2023-03-15T04:11:26.059Z,1.27
2023-03-15T04:12:26.277Z,1.21
2023-03-15T04:13:26.457Z,1.18
2023-03-15T04:14:26.641Z,1.16
2023-03-15T04:15:26.860Z,1.16
2023-03-15T04:16:27.096Z,1.14
2023-03-15T04:17:27.290Z,1.10
2023-03-15T04:18:27.479Z,1.07
2023-03-15T04:19:27.678Z,1.07
2023-03-15T04:20:27.868Z,1.06
2023-03-15T04:21:28.059Z,1.04
2023-03-15T04:22:28.243Z,1.04
2023-03-15T04:23:28.444Z,1.06
2023-03-15T04:24:28.643Z,1.04
2023-03-15T04:25:28.890Z,1.06
2023-03-15T04:26:29.104Z,1.10
2023-03-15T04:27:29.308Z,1.13
2023-03-15T04:28:29.506Z,1.10
2023-03-15T04:29:29.717Z,1.12
2023-03-15T04:30:29.961Z,1.10
2023-03-15T04:31:30.273Z,1.13
2023-03-15T04:32:30.378Z,1.09
2023-03-15T04:33:30.606Z,1.04
2023-03-15T04:34:30.826Z,1.02
2023-03-15T04:35:31.073Z,1.03
2023-03-15T04:36:31.240Z,1.02
2023-03-15T04:37:31.445Z,1.00
2023-03-15T04:38:31.645Z,1.02
2023-03-15T04:39:31.847Z,1.00
2023-03-15T04:40:32.076Z,0.99
2023-03-15T04:41:32.287Z,0.99
2023-03-15T04:42:32.493Z,0.99
2023-03-15T04:43:32.710Z,0.96
2023-03-15T04:44:32.924Z,0.94
2023-03-15T04:45:33.148Z,0.91
2023-03-15T04:46:33.380Z,0.95
2023-03-15T04:47:33.558Z,0.95
2023-03-15T04:48:33.759Z,0.94
2023-03-15T04:49:33.965Z,0.95
2023-03-15T04:50:34.166Z,0.94
2023-03-15T04:51:34.418Z,0.95
2023-03-15T04:52:34.877Z,0.96
2023-03-15T04:53:34.884Z,0.99
2023-03-15T04:54:35.112Z,0.96
2023-03-15T04:55:35.332Z,0.95
2023-03-15T04:56:35.571Z,1.00
2023-03-15T04:57:35.791Z,1.02
2023-03-15T04:58:36.059Z,1.00
2023-03-15T04:59:36.173Z,1.00
2023-03-15T05:00:36.424Z,1.00
2023-03-15T05:01:36.786Z,1.00
2023-03-15T05:02:36.835Z,0.99
2023-03-15T05:03:36.949Z,0.99
2023-03-15T05:04:37.228Z,0.99
2023-03-15T05:05:38.234Z,0.96
2023-03-15T05:06:37.531Z,1.00
2023-03-15T05:07:37.791Z,1.00
2023-03-15T05:08:37.975Z,0.99
2023-03-15T05:09:39.734Z,1.00
2023-03-15T05:10:38.259Z,1.00
2023-03-15T05:11:38.461Z,0.99
2023-03-15T05:12:38.661Z,0.96
2023-03-15T05:13:38.865Z,0.99
2023-03-15T05:14:39.081Z,0.99
2023-03-15T05:15:39.285Z,1.00
2023-03-15T05:16:39.521Z,1.00
2023-03-15T05:17:39.751Z,0.99
2023-03-15T05:18:39.952Z,0.99
2023-03-15T05:19:40.212Z,1.00
2023-03-15T05:20:40.340Z,1.02
2023-03-15T05:21:40.553Z,1.03
2023-03-15T05:22:40.945Z,1.06
2023-03-15T05:23:40.936Z,1.09
2023-03-15T05:24:41.151Z,1.09
2023-03-15T05:25:41.434Z,1.13
2023-03-15T05:26:41.548Z,1.14
2023-03-15T05:27:41.789Z,1.14
2023-03-15T05:28:42.228Z,1.14
2023-03-15T05:29:42.209Z,1.18
2023-03-15T05:30:42.451Z,1.20
2023-03-15T05:31:42.703Z,1.21
2023-03-15T05:32:42.957Z,1.24
2023-03-15T05:33:43.052Z,1.25
2023-03-15T05:34:43.937Z,1.27
2023-03-15T05:35:43.544Z,1.31
2023-03-15T05:36:43.691Z,1.39
2023-03-15T05:37:43.899Z,1.40
2023-03-15T05:38:45.670Z,1.43
2023-03-15T05:39:44.352Z,1.48
2023-03-15T05:40:44.504Z,1.48
2023-03-15T05:41:44.615Z,1.49
2023-03-15T05:42:45.105Z,1.53
2023-03-15T05:43:45.146Z,1.58
2023-03-15T05:44:45.299Z,1.63
2023-03-15T05:45:45.374Z,1.61
2023-03-15T05:46:45.573Z,1.61
2023-03-15T05:47:45.769Z,1.64
2023-03-15T05:48:45.980Z,1.67
2023-03-15T05:49:46.184Z,1.67
2023-03-15T05:50:46.415Z,1.68
2023-03-15T05:51:46.609Z,1.68
2023-03-15T05:52:46.807Z,1.71
2023-03-15T05:53:47.028Z,1.74
2023-03-15T05:54:47.244Z,1.76
2023-03-15T05:55:47.522Z,1.78
2023-03-15T05:56:47.596Z,1.81
2023-03-15T05:57:47.818Z,1.85
2023-03-15T05:58:48.040Z,1.85
2023-03-15T05:59:48.235Z,1.85
2023-03-15T06:00:48.443Z,1.88
2023-03-15T06:01:48.640Z,1.93
2023-03-15T06:02:48.957Z,1.95
2023-03-15T06:03:49.217Z,2.03
2023-03-15T06:04:49.230Z,2.04
2023-03-15T06:05:49.415Z,2.10
2023-03-15T06:06:49.619Z,2.15
2023-03-15T06:07:49.813Z,2.21
2023-03-15T06:08:50.050Z,2.25
2023-03-15T06:09:50.132Z,2.28
2023-03-15T06:10:50.335Z,2.32
2023-03-15T06:11:50.522Z,2.37
2023-03-15T06:12:50.745Z,2.40
2023-03-15T06:13:50.961Z,2.43
2023-03-15T06:14:51.185Z,2.46
2023-03-15T06:15:51.377Z,2.57
2023-03-15T06:16:51.636Z,2.61
2023-03-15T06:17:51.787Z,2.70
2023-03-15T06:18:51.999Z,2.68
2023-03-15T06:19:52.170Z,2.62
2023-03-15T06:20:52.364Z,2.61
2023-03-15T06:21:52.548Z,2.57
2023-03-15T06:22:52.756Z,2.55
2023-03-15T06:23:52.972Z,2.54
2023-03-15T06:24:53.152Z,2.54
2023-03-15T06:25:53.369Z,2.52
2023-03-15T06:26:53.565Z,2.54
2023-03-15T06:27:53.862Z,2.55
2023-03-15T06:28:54.012Z,2.57
2023-03-15T06:29:54.077Z,2.61
2023-03-15T06:30:54.321Z,2.62
2023-03-15T06:31:54.491Z,2.61
2023-03-15T06:32:54.768Z,2.61
2023-03-15T06:33:54.841Z,2.59
2023-03-15T06:34:55.030Z,2.64
2023-03-15T06:35:55.239Z,2.65
2023-03-15T06:36:55.413Z,2.68
2023-03-15T06:37:55.585Z,2.69
2023-03-15T06:38:55.790Z,2.69
2023-03-15T06:39:55.976Z,2.70
2023-03-15T06:40:56.147Z,2.75
2023-03-15T06:41:56.331Z,2.82
2023-03-15T06:42:56.519Z,2.88
2023-03-15T06:43:56.707Z,2.97
2023-03-15T06:44:56.891Z,3.06
2023-03-15T06:45:57.117Z,3.08
2023-03-15T06:46:57.263Z,3.03
2023-03-15T06:47:57.321Z,3.05
2023-03-15T06:48:57.513Z,3.05
2023-03-15T06:49:57.688Z,3.01
2023-03-15T06:50:57.871Z,3.03
2023-03-15T06:51:58.028Z,3.09
2023-03-15T06:52:58.239Z,3.13
2023-03-15T06:53:58.410Z,3.11
2023-03-15T06:54:58.573Z,3.09
2023-03-15T06:55:58.734Z,3.09
2023-03-15T06:56:58.900Z,3.12
2023-03-15T06:57:59.056Z,3.13
2023-03-15T06:58:59.223Z,3.11
2023-03-15T06:59:59.428Z,3.15
2023-03-15T07:00:59.672Z,3.09
2023-03-15T07:01:59.777Z,3.06
2023-03-15T07:02:59.982Z,3.08
2023-03-15T07:04:00.142Z,3.12
2023-03-15T07:05:00.312Z,3.16
2023-03-15T07:06:00.573Z,3.18
2023-03-15T07:07:00.601Z,3.21
2023-03-15T07:08:00.746Z,3.26
2023-03-15T07:09:00.903Z,3.29
2023-03-15T07:10:01.050Z,3.36
2023-03-15T07:11:01.198Z,3.37
2023-03-15T07:12:01.347Z,3.34
2023-03-15T07:13:01.493Z,3.33
2023-03-15T07:14:01.652Z,3.41
2023-03-15T07:15:01.800Z,3.45
2023-03-15T07:16:01.959Z,3.45
2023-03-15T07:17:02.074Z,3.34
2023-03-15T07:18:02.205Z,3.26
2023-03-15T07:19:02.394Z,3.29
2023-03-15T07:20:02.544Z,3.22
2023-03-15T07:21:02.690Z,3.24
2023-03-15T07:22:02.821Z,3.24
2023-03-15T07:23:02.980Z,3.30
2023-03-15T07:24:03.107Z,3.33
2023-03-15T07:25:03.250Z,3.36
2023-03-15T07:26:03.383Z,3.43
2023-03-15T07:27:03.587Z,3.48
2023-03-15T07:28:03.702Z,3.49
2023-03-15T07:29:04.120Z,3.50
2023-03-15T07:30:04.038Z,3.49
2023-03-15T07:31:04.184Z,3.52
2023-03-15T07:32:04.318Z,3.58
2023-03-15T07:33:04.518Z,3.67
2023-03-15T07:34:04.625Z,3.73
2023-03-15T07:35:05.276Z,3.71
2023-03-15T07:36:04.952Z,3.70
2023-03-15T07:37:05.144Z,3.81
2023-03-15T07:38:05.282Z,3.85
2023-03-15T07:39:05.414Z,3.81
2023-03-15T07:40:05.583Z,3.86
2023-03-15T07:41:05.716Z,3.86
2023-03-15T07:42:05.885Z,3.89
2023-03-15T07:43:06.024Z,3.96
2023-03-15T07:44:06.157Z,4.00
2023-03-15T07:45:06.279Z,4.09
2023-03-15T07:46:06.419Z,4.13
2023-03-15T07:47:06.554Z,4.24
2023-03-15T07:48:06.676Z,4.32
2023-03-15T07:49:06.803Z,4.34
2023-03-15T07:50:06.889Z,4.46
2023-03-15T07:51:07.104Z,4.48
2023-03-15T07:52:07.446Z,4.48
2023-03-15T07:53:07.437Z,4.53
2023-03-15T07:54:07.662Z,4.64
2023-03-15T07:55:08.603Z,4.83
2023-03-15T07:56:07.898Z,4.86
2023-03-15T07:57:08.042Z,4.92
2023-03-15T07:58:08.110Z,4.95
2023-03-15T07:59:08.297Z,4.97
2023-03-15T08:00:08.486Z,5.05
2023-03-15T08:01:08.745Z,5.10
2023-03-15T08:02:09.532Z,5.10
2023-03-15T08:03:09.027Z,5.05
2023-03-15T08:04:09.208Z,5.04
2023-03-15T08:05:09.390Z,4.97
2023-03-15T08:06:09.583Z,5.00
2023-03-15T08:07:09.766Z,4.98
2023-03-15T08:08:09.946Z,4.86
2023-03-15T08:09:10.110Z,4.82
2023-03-15T08:10:10.325Z,4.84
2023-03-15T08:11:10.532Z,4.92
2023-03-15T08:12:10.611Z,5.10
2023-03-15T08:13:10.819Z,5.07
2023-03-15T08:14:11.004Z,4.94
2023-03-15T08:15:11.201Z,4.83
2023-03-15T08:16:11.553Z,4.76
2023-03-15T08:17:11.846Z,4.75
2023-03-15T08:18:11.726Z,4.82
2023-03-15T08:19:11.903Z,4.98
2023-03-15T08:20:12.069Z,5.02
2023-03-15T08:21:12.284Z,5.18
2023-03-15T08:22:12.429Z,5.25
2023-03-15T08:23:12.620Z,5.33
2023-03-15T08:24:12.777Z,5.38
2023-03-15T08:25:12.958Z,5.37
2023-03-15T08:26:13.135Z,5.37
2023-03-15T08:27:14.234Z,5.31
2023-03-15T08:28:13.497Z,5.22
2023-03-15T08:29:13.686Z,5.10
2023-03-15T08:30:13.858Z,5.07
2023-03-15T08:31:14.200Z,5.04
2023-03-15T08:32:14.213Z,4.95
2023-03-15T08:33:14.265Z,4.95
2023-03-15T08:34:14.449Z,4.87
2023-03-15T08:35:15.765Z,4.92
2023-03-15T08:36:14.747Z,4.94
2023-03-15T08:37:14.956Z,4.94
2023-03-15T08:38:15.144Z,4.92
2023-03-15T08:39:15.346Z,4.95
2023-03-15T08:40:15.411Z,5.05
2023-03-15T08:41:15.576Z,5.18
2023-03-15T08:42:15.752Z,5.22
2023-03-15T08:43:15.935Z,5.18
2023-03-15T08:44:16.092Z,5.22
2023-03-15T08:45:16.257Z,5.18
2023-03-15T08:46:16.458Z,5.15
2023-03-15T08:47:16.614Z,5.08
2023-03-15T08:48:16.807Z,5.08
2023-03-15T08:49:16.978Z,5.08
2023-03-15T08:50:17.197Z,5.02
2023-03-15T08:51:17.373Z,5.04
2023-03-15T08:52:18.293Z,5.02
2023-03-15T08:53:17.723Z,5.01
2023-03-15T08:54:17.894Z,5.07
2023-03-15T08:55:18.061Z,5.07
2023-03-15T08:56:18.216Z,5.07
2023-03-15T08:57:18.397Z,5.10
2023-03-15T08:58:18.596Z,5.05
2023-03-15T08:59:29.123Z,4.89
2023-03-15T09:00:19.888Z,4.87
2023-03-15T09:01:19.046Z,4.82
2023-03-15T09:02:19.214Z,4.75
2023-03-15T09:03:19.386Z,4.68
2023-03-15T09:04:19.601Z,4.70
2023-03-15T09:05:19.711Z,4.78
2023-03-15T09:06:19.879Z,4.89
2023-03-15T09:07:20.094Z,4.90
2023-03-15T09:08:20.189Z,5.07
2023-03-15T09:09:20.272Z,5.29
2023-03-15T09:10:20.455Z,5.49
2023-03-15T09:11:20.619Z,5.64
2023-03-15T09:12:20.794Z,5.80
2023-03-15T09:13:20.972Z,6.02
2023-03-15T09:14:21.157Z,6.47
2023-03-15T09:15:21.303Z,6.82
2023-03-15T09:16:21.530Z,7.00
2023-03-15T09:17:21.588Z,7.10
2023-03-15T09:18:21.761Z,7.37
2023-03-15T09:19:21.902Z,7.53
2023-03-15T09:20:22.057Z,7.70
2023-03-15T09:21:22.190Z,8.05
2023-03-15T09:22:38.635Z,8.09
2023-03-15T09:23:23.473Z,7.85
2023-03-15T09:24:22.600Z,7.33
2023-03-15T09:25:22.764Z,7.29
2023-03-15T09:26:22.909Z,7.18
2023-03-15T09:27:23.019Z,7.00
2023-03-15T09:28:23.144Z,6.87
2023-03-15T09:29:23.272Z,6.77
2023-03-15T09:30:23.398Z,6.74
2023-03-15T09:31:23.544Z,6.65
2023-03-15T09:32:23.719Z,6.67
2023-03-15T09:33:23.770Z,6.95
2023-03-15T09:34:25.373Z,6.86
2023-03-15T09:35:23.943Z,6.86
2023-03-15T09:36:24.064Z,6.85
2023-03-15T09:37:24.184Z,6.82
2023-03-15T09:38:24.315Z,6.70
2023-03-15T09:39:24.418Z,6.60
2023-03-15T09:40:24.636Z,6.57
2023-03-15T09:41:24.641Z,6.46
2023-03-15T09:42:24.772Z,6.38
2023-03-15T09:43:24.888Z,6.20
2023-03-15T09:44:32.029Z,6.05
2023-03-15T09:45:26.809Z,5.84
2023-03-15T09:46:28.149Z,5.73
2023-03-15T09:47:25.396Z,5.64
2023-03-15T09:48:25.533Z,5.69
2023-03-15T09:49:25.678Z,5.77
2023-03-15T09:50:25.827Z,5.80
2023-03-15T09:51:25.971Z,5.87
2023-03-15T09:52:26.123Z,5.91
2023-03-15T09:53:26.256Z,5.77
2023-03-15T09:54:26.415Z,5.69
2023-03-15T09:55:26.768Z,5.65
2023-03-15T09:56:26.668Z,5.73
2023-03-15T09:57:26.801Z,5.76
2023-03-15T09:58:26.954Z,5.70
2023-03-15T09:59:27.110Z,5.77
2023-03-15T10:00:27.264Z,5.79
2023-03-15T10:01:27.494Z,5.98
2023-03-15T10:02:27.504Z,6.25
2023-03-15T10:03:27.741Z,7.08
2023-03-15T10:04:27.815Z,7.21
2023-03-15T10:05:27.947Z,7.05
2023-03-15T10:06:28.104Z,6.96
2023-03-15T10:07:28.264Z,6.83
2023-03-15T10:08:28.433Z,7.36
2023-03-15T10:09:28.575Z,7.32
2023-03-15T10:10:28.727Z,7.33
2023-03-15T10:11:28.860Z,7.11
2023-03-15T10:12:28.984Z,7.44
2023-03-15T10:13:29.116Z,7.91
2023-03-15T10:14:29.260Z,8.03
2023-03-15T10:15:29.368Z,8.06
2023-03-15T10:16:29.511Z,8.17
2023-03-15T10:17:29.588Z,8.13
2023-03-15T10:18:29.742Z,7.98
2023-03-15T10:19:29.900Z,7.93
2023-03-15T10:20:30.008Z,7.88
2023-03-15T10:21:30.101Z,7.95
2023-03-15T10:22:30.232Z,7.77
2023-03-15T10:23:30.336Z,7.62
2023-03-15T10:24:30.461Z,7.59
2023-03-15T10:25:30.583Z,7.67
2023-03-15T10:26:30.737Z,7.53
2023-03-15T10:27:30.754Z,7.39
2023-03-15T10:28:32.366Z,7.33
2023-03-15T10:29:30.927Z,7.31
2023-03-15T10:30:31.058Z,7.26
2023-03-15T10:31:41.435Z,7.19
2023-03-15T10:32:32.283Z,7.08
2023-03-15T10:33:31.387Z,6.87
2023-03-15T10:34:31.660Z,6.83
2023-03-15T10:35:31.629Z,6.85
2023-03-15T10:36:31.704Z,7.25
2023-03-15T10:37:31.816Z,8.35
2023-03-15T10:38:31.933Z,8.18
2023-03-15T10:39:32.095Z,8.44
2023-03-15T10:40:32.233Z,9.56
2023-03-15T10:41:32.336Z,10.24
2023-03-15T10:42:32.452Z,10.48
2023-03-15T10:43:32.573Z,10.41
2023-03-15T10:44:32.709Z,10.98
2023-03-15T10:45:32.927Z,11.20
2023-03-15T10:46:32.952Z,11.22
2023-03-15T10:47:32.980Z,11.52
2023-03-15T10:48:33.090Z,11.67
2023-03-15T10:49:33.170Z,11.71
2023-03-15T10:50:33.304Z,12.05
2023-03-15T10:51:33.247Z,12.33
2023-03-15T10:52:33.323Z,12.80
2023-03-15T10:53:33.394Z,13.64
2023-03-15T10:54:33.476Z,14.66
2023-03-15T10:55:33.660Z,14.59
2023-03-15T10:56:33.724Z,14.34
2023-03-15T10:57:33.657Z,13.98
2023-03-15T10:58:33.710Z,14.11
2023-03-15T10:59:33.744Z,14.23
2023-03-15T11:00:33.799Z,13.45
2023-03-15T11:01:33.804Z,13.19
2023-03-15T11:02:33.858Z,13.26
2023-03-15T11:03:33.878Z,12.66
2023-03-15T11:04:34.511Z,12.05
2023-03-15T11:05:33.894Z,11.08
2023-03-15T11:06:33.973Z,10.46
2023-03-15T11:07:33.987Z,10.94
2023-03-15T11:08:34.020Z,11.68
2023-03-15T11:09:34.087Z,11.07
2023-03-15T11:10:34.134Z,11.73
2023-03-15T11:11:34.185Z,12.57
2023-03-15T11:12:34.228Z,12.90
2023-03-15T11:13:34.272Z,13.42
2023-03-15T11:14:34.330Z,13.98
2023-03-15T11:15:34.557Z,14.00
2023-03-15T11:16:34.598Z,13.93
2023-03-15T11:17:34.477Z,13.39
2023-03-15T11:18:34.534Z,12.66
2023-03-15T11:19:34.570Z,12.35
2023-03-15T11:20:34.617Z,11.56
2023-03-15T11:21:34.674Z,10.97
2023-03-15T11:22:34.719Z,10.58
2023-03-15T11:23:34.768Z,9.90
2023-03-15T11:24:34.897Z,9.34
2023-03-15T11:25:34.826Z,9.18
2023-03-15T11:26:34.904Z,9.51
2023-03-15T11:27:34.956Z,10.90
2023-03-15T11:28:35.017Z,12.03
2023-03-15T11:29:35.187Z,12.30
2023-03-15T11:30:35.157Z,12.12
2023-03-15T11:31:35.267Z,11.55
2023-03-15T11:32:35.425Z,11.26
2023-03-15T11:33:35.363Z,11.01
2023-03-15T11:34:35.570Z,11.93
2023-03-15T11:35:35.660Z,11.71
2023-03-15T11:36:35.609Z,11.41
2023-03-15T11:37:35.683Z,11.08
2023-03-15T11:38:35.848Z,10.68
2023-03-15T11:39:35.785Z,10.18
2023-03-15T11:40:35.863Z,9.82
2023-03-15T11:41:37.404Z,9.37
2023-03-15T11:42:36.039Z,9.13
2023-03-15T11:43:36.126Z,8.99
2023-03-15T11:44:36.209Z,9.00
2023-03-15T11:45:36.327Z,9.21
2023-03-15T11:46:36.438Z,9.52
2023-03-15T11:47:36.584Z,9.15
2023-03-15T11:48:36.570Z,8.66
2023-03-15T11:49:36.657Z,8.28
2023-03-15T11:50:39.180Z,8.17
2023-03-15T11:51:37.791Z,9.15
2023-03-15T11:52:36.907Z,10.24
2023-03-15T11:53:36.991Z,11.18
2023-03-15T11:54:37.095Z,12.14
2023-03-15T11:55:37.209Z,12.55
2023-03-15T11:56:37.277Z,12.76
2023-03-15T11:57:37.422Z,12.10
2023-03-15T11:58:37.473Z,11.67
2023-03-15T11:59:37.520Z,11.30
2023-03-15T12:00:37.521Z,11.25
2023-03-15T12:01:37.581Z,10.84
2023-03-15T12:02:37.718Z,10.65
2023-03-15T12:03:37.942Z,11.62
2023-03-15T12:04:37.722Z,12.62
2023-03-15T12:05:37.822Z,12.68
2023-03-15T12:06:37.952Z,12.65
2023-03-15T12:07:38.320Z,13.62
2023-03-15T12:08:38.005Z,14.01
2023-03-15T12:09:38.098Z,14.45
2023-03-15T12:10:38.240Z,14.34
2023-03-15T12:11:38.148Z,14.51
2023-03-15T12:12:38.230Z,14.89
2023-03-15T12:13:38.268Z,14.73
2023-03-15T12:14:38.365Z,15.05
2023-03-15T12:15:38.421Z,14.58
2023-03-15T12:16:38.441Z,14.77
2023-03-15T12:17:38.490Z,15.25
2023-03-15T12:18:38.413Z,15.62
2023-03-15T12:19:38.449Z,15.60
2023-03-15T12:20:38.488Z,15.73
2023-03-15T12:21:38.523Z,15.85
2023-03-15T12:22:38.549Z,14.68
2023-03-15T12:23:38.572Z,13.40
2023-03-15T12:24:38.609Z,13.55
2023-03-15T12:25:48.928Z,14.03
2023-03-15T12:26:39.654Z,14.23
2023-03-15T12:27:38.684Z,13.76
2023-03-15T12:28:38.729Z,14.23
2023-03-15T12:29:38.688Z,14.62
2023-03-15T12:30:38.746Z,15.25
2023-03-15T12:31:38.778Z,15.85
2023-03-15T12:32:38.857Z,16.25
2023-03-15T12:33:38.758Z,15.72
2023-03-15T12:34:38.782Z,15.66
2023-03-15T12:35:38.867Z,15.25
2023-03-15T12:36:38.753Z,15.33
2023-03-15T12:37:38.773Z,15.30
2023-03-15T12:38:38.814Z,15.18
2023-03-15T12:39:38.819Z,15.51
2023-03-15T12:40:38.825Z,15.70
2023-03-15T12:41:38.859Z,15.08
2023-03-15T12:42:39.886Z,14.94
2023-03-15T12:43:38.888Z,14.96
2023-03-15T12:44:38.926Z,15.04
2023-03-15T12:45:38.908Z,14.85
2023-03-15T12:46:38.917Z,15.10
2023-03-15T12:47:38.974Z,15.19
2023-03-15T12:48:38.915Z,15.76
2023-03-15T12:49:38.936Z,14.66
2023-03-15T12:50:38.944Z,13.21
2023-03-15T12:51:38.946Z,12.14
2023-03-15T12:52:38.993Z,11.97
2023-03-15T12:53:39.047Z,11.97
2023-03-15T12:54:39.065Z,12.23
2023-03-15T12:55:39.094Z,12.47
2023-03-15T12:56:39.149Z,12.95
2023-03-15T12:57:39.200Z,13.97
2023-03-15T12:58:39.262Z,14.68
2023-03-15T12:59:39.346Z,15.48
2023-03-15T13:00:39.403Z,16.61
2023-03-15T13:01:39.516Z,17.39
2023-03-15T13:02:43.924Z,17.80
2023-03-15T13:03:39.475Z,17.93
2023-03-15T13:04:40.126Z,17.16
2023-03-15T13:05:39.501Z,17.17
2023-03-15T13:06:39.509Z,17.46
2023-03-15T13:07:50.797Z,18.02
2023-03-15T13:08:40.568Z,17.17
2023-03-15T13:09:39.571Z,16.97
2023-03-15T13:10:39.576Z,16.95
2023-03-15T13:11:39.585Z,17.34
2023-03-15T13:12:39.606Z,17.93
2023-03-15T13:13:39.611Z,18.27
2023-03-15T13:14:39.616Z,18.71
2023-03-15T13:15:40.676Z,19.01